Pertusola — IBER — position and weather

sailwx.info

Track history (hours):
 
Tides and Currents Weather Stations Pressure Air Temp Water Temp Dewpoint Dewpoint Depression Visibility Wind Speed Wind Dir Waves Ship Positions

Pertusola

Last reported at 2015-May-26 06:14 UTC. Time now 2015-May-27 22:02 UTC.
Position N 66°17' E 012°12'.

Length 145 m; draft 6.8 m.

Type: Ship (hazmat cat A). MMSI: 247399000.

Date/timePositionNaut miles runAvg speedWind from/ knotsBaromVisibWave heightAir tempDewpointWater temp
2015-May-26 06:14N 66°17' E 012°12'912.3
2015-May-26 05:32N 66°15' E 012°33'1212.0
2015-May-26 04:33N 66°22' E 012°57'1512.4
2015-May-26 03:20N 66°37' E 013°04'10 0.3
2015-May-24 21:28N 66°46' E 013°14'1213.0
2015-May-24 20:32N 66°34' E 013°05'1211.8
2015-May-24 19:33N 66°23' E 012°58'1212.5
2015-May-24 18:33N 66°16' E 012°33'51310.3
2015-May-22 16:33N 58°24' E 005°20'1211.9
2015-May-22 15:33N 58°16' E 005°37'1212.4
2015-May-22 14:33N 58°08' E 005°55'14511.1
2015-May-22 01:33N 57°49' E 010°25'1310.6
2015-May-22 00:17N 57°46' E 010°50'4 5.7
2015-May-21 23:33N 57°44' E 010°56'1110.8
2015-May-21 22:33N 57°36' E 011°10'1212.1
2015-May-21 21:34N 57°28' E 011°27'1212.2
2015-May-21 20:33N 57°16' E 011°34'1211.9
2015-May-21 19:33N 57°05' E 011°42'1212.2
2015-May-21 18:34N 56°54' E 011°49'1111.0
2015-May-21 17:34N 56°43' E 011°49'12411.1
2015-May-21 06:23N 54°43' E 010°53'910.4
2015-May-21 05:33N 54°38' E 011°06'1312.8
2015-May-21 04:34N 54°32' E 011°25'1312.9
2015-May-21 03:34N 54°27' E 011°45'1212.3
2015-May-21 02:33N 54°26' E 012°07'2411.8
2015-May-21 00:31N 54°45' E 012°33'2412.2
2015-May-20 22:32N 54°53' E 013°13'2512.4
2015-May-20 20:30N 55°01' E 013°55'1212.1
2015-May-20 19:33N 55°09' E 014°10'1312.9
2015-May-20 18:33N 55°19' E 014°24'1412.7
2015-May-20 17:27N 55°29' E 014°42'1213.1
2015-May-20 16:33N 55°35' E 014°59'1312.9
2015-May-20 15:33N 55°42' E 015°18'1412.9
2015-May-20 14:28N 55°49' E 015°40'  
2015-May-17 11:25N 55°38' E 015°25'1112.8
2015-May-17 10:31N 55°33' E 015°07'1212.9
2015-May-17 09:33N 55°27' E 014°48'1312.6
2015-May-17 08:33N 55°18' E 014°32'1212.0
2015-May-17 07:33N 55°11' E 014°16'2512.5
2015-May-17 05:33N 55°12' E 013°32'1312.8
2015-May-17 04:33N 55°13' E 013°09'1313.0
2015-May-17 03:33N 55°16' E 012°47'10 9.9
2015-May-17 02:33N 55°24' E 012°39'10 9.9
2015-May-17 01:33N 55°34' E 012°42'1010.0
2015-May-17 00:33N 55°44' E 012°41'1212.4
2015-May-16 23:33N 55°56' E 012°38'1010.3
2015-May-16 22:33N 56°06' E 012°33'8 7.7
2015-May-16 21:33N 56°11' E 012°22'1312.4
2015-May-16 20:31N 56°19' E 012°03'1414.0
2015-May-16 19:33N 56°32' E 011°58'1414.1
2015-May-16 18:34N 56°45' E 011°51'1414.3
2015-May-16 17:33N 56°59' E 011°42'1413.6
2015-May-16 16:33N 57°12' E 011°34'1313.3
2015-May-16 15:33N 57°24' E 011°25'1312.7
2015-May-16 14:33N 57°34' E 011°10'1313.0
2015-May-16 13:33N 57°40' E 010°49'6 5.9
2015-May-16 12:33N 57°39' E 010°38'0 0.0
2015-May-16 11:33N 57°39' E 010°38'0 0.0
2015-May-16 10:33N 57°39' E 010°38'0 0.0
2015-May-16 09:28N 57°39' E 010°38'0 0.0
2015-May-16 08:08N 57°39' E 010°38'0 0.0
2015-May-16 07:32N 57°39' E 010°38'0 0.0
2015-May-16 06:32N 57°39' E 010°38'  
Track history (hours):
 
Tides and Currents Weather Stations Pressure Air Temp Water Temp Dewpoint Dewpoint Depression Visibility Wind Speed Wind Dir Waves Ship Positions

Pertusola

Last reported at 2015-May-26 06:14 UTC. Time now 2015-May-27 22:02 UTC.
Position N 66°17' E 012°12'.

Length 145 m; draft 6.8 m.

Type: Ship (hazmat cat A). MMSI: 247399000.

Date/timePositionNaut miles runAvg speedWind from/ knotsBaromVisibWave heightAir tempDewpointWater temp
2015-May-26 06:14N 66°17' E 012°12'912.3
2015-May-26 05:32N 66°15' E 012°33'1212.0
2015-May-26 04:33N 66°22' E 012°57'1512.4
2015-May-26 03:20N 66°37' E 013°04'10 0.3
2015-May-24 21:28N 66°46' E 013°14'1213.0
2015-May-24 20:32N 66°34' E 013°05'1211.8
2015-May-24 19:33N 66°23' E 012°58'1212.5
2015-May-24 18:33N 66°16' E 012°33'51310.3
2015-May-22 16:33N 58°24' E 005°20'1211.9
2015-May-22 15:33N 58°16' E 005°37'1212.4
2015-May-22 14:33N 58°08' E 005°55'14511.1
2015-May-22 01:33N 57°49' E 010°25'1310.6
2015-May-22 00:17N 57°46' E 010°50'4 5.7
2015-May-21 23:33N 57°44' E 010°56'1110.8
2015-May-21 22:33N 57°36' E 011°10'1212.1
2015-May-21 21:34N 57°28' E 011°27'1212.2
2015-May-21 20:33N 57°16' E 011°34'1211.9
2015-May-21 19:33N 57°05' E 011°42'1212.2
2015-May-21 18:34N 56°54' E 011°49'1111.0
2015-May-21 17:34N 56°43' E 011°49'12411.1
2015-May-21 06:23N 54°43' E 010°53'910.4
2015-May-21 05:33N 54°38' E 011°06'1312.8
2015-May-21 04:34N 54°32' E 011°25'1312.9
2015-May-21 03:34N 54°27' E 011°45'1212.3
2015-May-21 02:33N 54°26' E 012°07'2411.8
2015-May-21 00:31N 54°45' E 012°33'2412.2
2015-May-20 22:32N 54°53' E 013°13'2512.4
2015-May-20 20:30N 55°01' E 013°55'1212.1
2015-May-20 19:33N 55°09' E 014°10'1312.9
2015-May-20 18:33N 55°19' E 014°24'1412.7
2015-May-20 17:27N 55°29' E 014°42'1213.1
2015-May-20 16:33N 55°35' E 014°59'1312.9
2015-May-20 15:33N 55°42' E 015°18'1412.9
2015-May-20 14:28N 55°49' E 015°40'  
2015-May-17 11:25N 55°38' E 015°25'1112.8
2015-May-17 10:31N 55°33' E 015°07'1212.9
2015-May-17 09:33N 55°27' E 014°48'1312.6
2015-May-17 08:33N 55°18' E 014°32'1212.0
2015-May-17 07:33N 55°11' E 014°16'2512.5
2015-May-17 05:33N 55°12' E 013°32'1312.8
2015-May-17 04:33N 55°13' E 013°09'1313.0
2015-May-17 03:33N 55°16' E 012°47'10 9.9
2015-May-17 02:33N 55°24' E 012°39'10 9.9
2015-May-17 01:33N 55°34' E 012°42'1010.0
2015-May-17 00:33N 55°44' E 012°41'1212.4
2015-May-16 23:33N 55°56' E 012°38'1010.3
2015-May-16 22:33N 56°06' E 012°33'8 7.7
2015-May-16 21:33N 56°11' E 012°22'1312.4
2015-May-16 20:31N 56°19' E 012°03'1414.0
2015-May-16 19:33N 56°32' E 011°58'1414.1
2015-May-16 18:34N 56°45' E 011°51'1414.3
2015-May-16 17:33N 56°59' E 011°42'1413.6
2015-May-16 16:33N 57°12' E 011°34'1313.3
2015-May-16 15:33N 57°24' E 011°25'1312.7
2015-May-16 14:33N 57°34' E 011°10'1313.0
2015-May-16 13:33N 57°40' E 010°49'6 5.9
2015-May-16 12:33N 57°39' E 010°38'0 0.0
2015-May-16 11:33N 57°39' E 010°38'0 0.0
2015-May-16 10:33N 57°39' E 010°38'0 0.0
2015-May-16 09:28N 57°39' E 010°38'0 0.0
2015-May-16 08:08N 57°39' E 010°38'0 0.0
2015-May-16 07:32N 57°39' E 010°38'0 0.0
2015-May-16 06:32N 57°39' E 010°38'  

Dump ship's entire track history